M I D A S
Marine Information and Data Acquisition System
Tripno 802 of the Zeeleeuw from 2004-11-05 12:23:18 to 2004-11-05 15:29:03
Back to CruiseResearch ActivitiesStationsMapUnderway DataData graphs

EquipmentUnitsComment
TimeDGPSUTC
LatitudeDGPSDM.mWGS84
LongitudeDGPSDM.mWGS84
HeadingGyrodeg 
SOGDGPSknotsSpeed over ground
COGDGPSdegCourse over ground
DepthEcho soundermeters200 kHz
Missing or incorrect values are displayed as -999
Navigation data collected by the RV Zeeleeuw from 2004-11-05 08:18:08 to 2004-11-05 15:31:42
Time Latitude Longitude Heading SOG COG Depth
2004-11-05 08:19:14 51°13.605 2°56.071 114.3 3.1 290 -999
2004-11-05 08:20:14 51°13.633 2°55.979 126.2 4.3 301 -999
2004-11-05 08:21:14 51°13.674 2°55.875 123.8 4.7 300 -999
2004-11-05 08:22:14 51°13.707 2°55.764 112.2 4.9 290 -999
2004-11-05 08:23:12 51°13.716 2°55.754 61.3 1 69 14.7
2004-11-05 08:24:14 51°13.716 2°55.758 37.5 1.9 34 14.6
2004-11-05 08:25:14 51°13.719 2°55.767 12.9 1.4 16 -999
2004-11-05 08:26:14 51°13.718 2°55.772 342.1 1.2 337 -999
2004-11-05 08:27:23 51°13.793 2°55.672 326.6 7.2 323 11.5
2004-11-05 08:28:32 51°13.937 2°55.558 340.7 9 337 11.1
2004-11-05 08:29:32 51°14.076 2°55.457 339.4 9.2 336 11.6
2004-11-05 08:30:32 51°14.224 2°55.32 326.7 10.8 321 12.3
2004-11-05 08:31:38 51°14.352 2°55.071 308.8 11.4 304 12
2004-11-05 08:32:38 51°14.471 2°54.827 315 12.1 307 11.8
2004-11-05 08:33:44 51°14.575 2°54.498 297 13 290 91.9
2004-11-05 08:34:44 51°14.657 2°54.173 299.3 13.4 295 12.2
2004-11-05 08:35:44 51°14.756 2°53.859 302.6 13.1 298 10.8
2004-11-05 08:36:52 51°14.873 2°53.508 303.3 13.2 298 11.3
2004-11-05 08:38:06 51°15.001 2°53.128 304.4 13.2 300 11.5
2004-11-05 08:39:06 51°15.099 2°52.82 301.5 13 297 11.5
2004-11-05 08:40:06 51°15.198 2°52.505 302.2 13.4 296 12.4
2004-11-05 08:41:06 51°15.28 2°52.178 295.9 13.4 290 12.8
2004-11-05 08:42:08 51°15.333 2°51.823 284.3 13.3 279 13.5
2004-11-05 08:43:08 51°15.364 2°51.473 282.6 13.3 277 13.4
2004-11-05 08:44:08 51°15.4 2°51.126 284.3 13.4 279 13.8
2004-11-05 08:45:08 51°15.436 2°50.778 284.5 13.5 279 14
2004-11-05 08:46:06 51°15.475 2°50.443 287.1 13.3 282 14
2004-11-05 08:47:06 51°15.519 2°50.098 286.1 13.1 280 13.9
2004-11-05 08:48:08 51°15.564 2°49.744 287.1 13.4 282 14.3
2004-11-05 08:49:09 51°15.61 2°49.391 287 13.3 281 13.3
2004-11-05 08:50:11 51°15.658 2°49.035 287.7 13.2 282 11.5
2004-11-05 08:51:10 51°15.7 2°48.699 286.1 12.9 280 11.8
2004-11-05 08:52:11 51°15.745 2°48.352 287 13.3 282 12.8
2004-11-05 08:53:31 51°15.803 2°47.896 288 13.2 282 15.4
2004-11-05 08:54:30 51°15.849 2°47.555 287.8 13.5 282 16.8
2004-11-05 08:55:29 51°15.893 2°47.211 287.7 13.3 281 17.3
2004-11-05 08:56:30 51°15.938 2°46.855 287.9 13.4 280 17.5
2004-11-05 08:57:29 51°15.981 2°46.513 287.4 13.2 282 15.9
2004-11-05 08:58:29 51°16.026 2°46.168 287 13.4 282 12.9
2004-11-05 08:59:29 51°16.069 2°45.831 287.3 13.2 282 12.6
2004-11-05 09:00:30 51°16.162 2°45.516 311.3 13 307 11.7
2004-11-05 09:01:29 51°16.29 2°45.239 311.9 13.3 307 11.8
2004-11-05 09:02:30 51°16.423 2°44.954 313.2 13.2 308 11.8
2004-11-05 09:03:29 51°16.553 2°44.68 312.4 13.2 306 11.9
2004-11-05 09:04:30 51°16.69 2°44.407 317.5 13 312 15.2
2004-11-05 09:05:32 51°16.838 2°44.131 313.6 13.3 308 16.1
2004-11-05 09:06:46 51°17 2°43.8 314.5 12.8 308 15.7
2004-11-05 09:07:52 51°17.072 2°43.451 281.3 13.2 276 15.2
2004-11-05 09:08:52 51°17.091 2°43.103 280.7 13.3 276 13.8
2004-11-05 09:10:16 51°17.124 2°42.62 282.9 13.3 277 10.8
2004-11-05 09:11:20 51°17.145 2°42.237 277.9 13.6 272 20.3
2004-11-05 09:12:28 51°17.155 2°41.844 279.3 13.2 273 23.6
2004-11-05 09:13:32 51°17.172 2°41.472 282.7 13.2 278 24.8
2004-11-05 09:14:32 51°17.199 2°41.121 282 13.3 276 24.5
2004-11-05 09:15:32 51°17.219 2°40.771 279.5 13.1 275 23.5
2004-11-05 09:16:56 51°17.24 2°40.282 277.8 13.3 273 19.5
2004-11-05 09:18:10 51°17.262 2°39.847 278.8 13.2 274 14.2
2004-11-05 09:19:24 51°17.283 2°39.426 279.1 11.5 275 11.4
2004-11-05 09:20:44 51°17.305 2°39.125 286.6 6.5 280 16.6
2004-11-05 09:21:56 51°17.345 2°39.024 352.5 2.2 343 20.2
2004-11-05 09:22:56 51°17.355 2°39.031 26.5 0.6 103 20.8
2004-11-05 09:23:55 51°17.35 2°39.044 39.2 1 129 20.3
2004-11-05 09:25:07 51°17.34 2°39.056 46.4 0.7 153 19.9
2004-11-05 09:26:08 51°17.329 2°39.062 52.9 0.6 162 19.7
2004-11-05 09:27:06 51°17.319 2°39.07 50.9 0.7 149 19
2004-11-05 09:28:06 51°17.31 2°39.08 50.7 0.5 156 19
2004-11-05 09:29:08 51°17.302 2°39.09 49.5 0.7 146 18.1
2004-11-05 09:30:28 51°17.293 2°39.102 46.8 0.8 137 17.1
2004-11-05 09:31:28 51°17.286 2°39.109 48.6 0.8 155 15.7
2004-11-05 09:32:28 51°17.277 2°39.116 50.4 0.5 146 14.6
2004-11-05 09:33:26 51°17.268 2°39.119 52.5 0.6 172 14.3
2004-11-05 09:34:28 51°17.26 2°39.126 52.6 0.4 133 13.1
2004-11-05 09:35:28 51°17.267 2°39.15 44.9 2 48 13.4
2004-11-05 09:36:38 51°17.309 2°39.214 43.9 3.4 44 13.9
2004-11-05 09:37:46 51°17.358 2°39.292 46.6 3.9 48 15.5
2004-11-05 09:38:46 51°17.406 2°39.369 47.3 4.3 45 14.9
2004-11-05 09:39:58 51°17.477 2°39.446 28.5 4.4 25 17.2
2004-11-05 09:40:58 51°17.532 2°39.482 22.1 2.4 27 19
2004-11-05 09:41:58 51°17.543 2°39.498 32.4 0.5 103 18.5
2004-11-05 09:42:56 51°17.537 2°39.506 40.3 0.2 145 19.4
2004-11-05 09:44:02 51°17.53 2°39.514 43.5 0.7 144 17.8
2004-11-05 09:45:28 51°17.519 2°39.521 44.2 0.3 186 16.3
2004-11-05 09:46:26 51°17.51 2°39.524 47.1 0.8 157 15.6
2004-11-05 09:47:28 51°17.501 2°39.528 46.7 0.6 181 15.3
2004-11-05 09:48:30 51°17.493 2°39.531 49.7 0.6 172 14.4
2004-11-05 09:49:42 51°17.484 2°39.533 49 0.6 164 13.9
2004-11-05 09:50:46 51°17.476 2°39.536 46.8 0.6 164 13.2
2004-11-05 09:51:48 51°17.47 2°39.539 45.5 0.2 217 12.3
2004-11-05 09:52:58 51°17.463 2°39.543 48.1 0.4 179 11.9
2004-11-05 09:54:02 51°17.458 2°39.545 45.3 0.4 152 12.5
2004-11-05 09:55:10 51°17.452 2°39.545 41.4 0.4 163 12.6
2004-11-05 09:56:10 51°17.446 2°39.548 42.7 0.3 186 14
2004-11-05 09:57:12 51°17.446 2°39.557 38.2 1.3 48 13.4
2004-11-05 09:58:22 51°17.496 2°39.587 19.4 3.6 16 14.6
2004-11-05 09:59:28 51°17.564 2°39.633 27.8 4.5 31 16.1
2004-11-05 10:00:28 51°17.627 2°39.69 33.9 4.4 28 16.9
2004-11-05 10:01:32 51°17.706 2°39.77 38.2 5.8 38 17.5
2004-11-05 10:02:32 51°17.794 2°39.857 35.8 6.4 34 18.6
2004-11-05 10:03:58 51°17.917 2°40.014 46.9 6.8 44 19.2
2004-11-05 10:05:48 51°18.038 2°40.224 46.4 4.9 50 19.2
2004-11-05 10:06:54 51°18.1 2°40.321 45.3 4.5 41 19.6
2004-11-05 10:07:56 51°18.156 2°40.412 49.7 4.9 47 16.8
2004-11-05 10:09:10 51°18.222 2°40.533 52.5 4.7 53 18.7
2004-11-05 10:10:14 51°18.28 2°40.632 45.7 4.7 42 18.7
2004-11-05 10:11:18 51°18.339 2°40.728 47.9 4.8 45 21
2004-11-05 10:12:18 51°18.394 2°40.823 50.6 4.9 49 16.1
2004-11-05 10:13:22 51°18.451 2°40.922 52.2 4.6 46 14.9
2004-11-05 10:14:30 51°18.511 2°41.03 51.4 4.8 50 16.5
2004-11-05 10:15:46 51°18.577 2°41.149 50.6 4.7 45 19.6
2004-11-05 10:16:48 51°18.634 2°41.17 348.9 3.4 336 18.9
2004-11-05 10:17:54 51°18.653 2°41.094 265.6 2.8 245 17.5
2004-11-05 10:18:53 51°18.605 2°41.048 188 4.2 188 16.6
2004-11-05 10:19:54 51°18.528 2°41.023 209.9 5 205 16.5
2004-11-05 10:20:53 51°18.45 2°40.981 192.6 5.3 194 17.5
2004-11-05 10:22:12 51°18.37 2°40.853 237 5.5 230 15.5
2004-11-05 10:23:54 51°18.267 2°40.654 235.2 5.9 230 18.2
2004-11-05 10:24:54 51°18.204 2°40.533 233.4 5.9 230 19.6
2004-11-05 10:25:54 51°18.138 2°40.419 235.4 5.9 229 18.4
2004-11-05 10:26:55 51°18.074 2°40.293 235.3 6 232 18.7
2004-11-05 10:27:56 51°18.01 2°40.168 234.8 6.1 231 20.2
2004-11-05 10:28:57 51°17.944 2°40.05 232.1 5.6 228 19.4
2004-11-05 10:29:56 51°17.88 2°39.938 229.4 6 229 19.4
2004-11-05 10:31:16 51°17.779 2°39.803 222.4 6.1 219 19
2004-11-05 10:32:55 51°17.651 2°39.627 225.1 6.1 225 19.4
2004-11-05 10:33:59 51°17.581 2°39.499 238 6 235 18.7
2004-11-05 10:35:18 51°17.505 2°39.337 240.7 5.8 233 18.7
2004-11-05 10:36:19 51°17.446 2°39.214 236.3 5.8 230 19
2004-11-05 10:37:36 51°17.356 2°39.073 226.3 6 223 19.7
2004-11-05 10:38:46 51°17.275 2°38.947 231.6 5.8 227 19.8
2004-11-05 10:40:19 51°17.185 2°38.766 240.2 5.4 234 22
2004-11-05 10:41:31 51°17.121 2°38.627 250.8 4.9 243 22.9
2004-11-05 10:43:09 51°17.147 2°38.513 5.4 2.4 5 24.1
2004-11-05 10:44:10 51°17.172 2°38.574 83.2 3.4 84 24.6
2004-11-05 10:45:22 51°17.196 2°38.702 79.6 4.6 77 22.6
2004-11-05 10:46:26 51°17.226 2°38.804 44.2 4 46 21.2
2004-11-05 10:47:30 51°17.28 2°38.898 55.3 4.8 53 21.3
2004-11-05 10:48:46 51°17.338 2°39.034 58.2 4.9 57 19.4
2004-11-05 10:49:44 51°17.385 2°39.134 55.5 4.8 54 18.7
2004-11-05 10:50:46 51°17.44 2°39.234 50.2 4.8 45 18.5
2004-11-05 10:51:53 51°17.502 2°39.331 44.3 4.5 38 18.5
2004-11-05 10:52:57 51°17.564 2°39.416 44.3 4.7 40 18.7
2004-11-05 10:54:11 51°17.639 2°39.516 46.8 5 42 18.3
2004-11-05 10:55:54 51°17.738 2°39.683 51.5 5.1 47 19.8
2004-11-05 10:57:03 51°17.8 2°39.799 51.7 4.9 56 19.1
2004-11-05 10:58:01 51°17.85 2°39.894 53.4 4.7 55 20
2004-11-05 10:59:18 51°17.914 2°40.013 48.7 4.6 46 19.4
2004-11-05 11:00:22 51°17.973 2°40.109 49.2 4.8 40 19.1
2004-11-05 11:01:21 51°18.027 2°40.2 49.3 4.8 48 19.5
2004-11-05 11:02:26 51°18.086 2°40.301 49.8 4.7 46 18.4
2004-11-05 11:03:26 51°18.142 2°40.394 49.8 4.9 42 18.5
2004-11-05 11:04:26 51°18.196 2°40.49 50.4 4.7 45 19.5
2004-11-05 11:05:30 51°18.25 2°40.588 50.4 4.5 47 20
2004-11-05 11:06:42 51°18.312 2°40.695 48.7 4.7 46 20.9
2004-11-05 11:07:42 51°18.366 2°40.785 47.1 4.9 44 18.3
2004-11-05 11:08:42 51°18.421 2°40.872 48.4 4.7 44 15.8
2004-11-05 11:09:42 51°18.47 2°40.961 50.2 4.5 51 17.7
2004-11-05 11:10:41 51°18.517 2°41.049 49.9 4.5 47 15.9
2004-11-05 11:11:55 51°18.578 2°41.157 49.2 4.4 47 19.9
2004-11-05 11:13:09 51°18.643 2°41.229 9.3 3.1 4 18.9
2004-11-05 11:14:10 51°18.676 2°41.183 309.1 2.8 298 16.8
2004-11-05 11:15:10 51°18.657 2°41.113 227.1 3.2 213 17.4
2004-11-05 11:16:09 51°18.589 2°41.089 185.6 5.2 188 18
2004-11-05 11:17:14 51°18.509 2°41.012 213.2 5.3 211 13.5
2004-11-05 11:18:13 51°18.44 2°40.914 232.9 5.8 230 16.1
2004-11-05 11:19:13 51°18.374 2°40.802 230.2 5.8 226 16.8
2004-11-05 11:20:20 51°18.293 2°40.677 227.8 6.2 225 19.7
2004-11-05 11:21:27 51°18.211 2°40.544 230.8 6.4 226 19.3
2004-11-05 11:22:32 51°18.133 2°40.412 230.8 6.3 228 18
2004-11-05 11:23:35 51°18.058 2°40.284 231.5 6.2 228 18.7
2004-11-05 11:24:34 51°17.99 2°40.171 231.4 6.2 224 19.3
2004-11-05 11:25:36 51°17.921 2°40.048 233 5.9 226 18.4
2004-11-05 11:26:46 51°17.839 2°39.912 231.5 6.2 221 19.6
2004-11-05 11:27:43 51°17.774 2°39.799 234.1 5.9 229 19.1
2004-11-05 11:28:46 51°17.706 2°39.671 235.4 6.2 226 19.8
2004-11-05 11:29:48 51°17.639 2°39.544 234.1 6.1 227 19.6
2004-11-05 11:30:50 51°17.568 2°39.416 232.6 6.2 226 18
2004-11-05 11:31:58 51°17.489 2°39.28 230.8 6.2 226 18
2004-11-05 11:33:04 51°17.415 2°39.154 230.7 5.8 225 19.2
2004-11-05 11:34:04 51°17.345 2°39.042 230.5 6 228 19.8
2004-11-05 11:35:04 51°17.275 2°38.925 228 6 225 20
2004-11-05 11:36:04 51°17.204 2°38.814 228.4 6 223 20.8
2004-11-05 11:37:04 51°17.133 2°38.705 229.1 5.9 224 20.9
2004-11-05 11:38:20 51°17.041 2°38.563 227.1 6.1 221 20.6
2004-11-05 11:39:28 51°16.96 2°38.435 229.2 6 224 20.9
2004-11-05 11:40:40 51°16.881 2°38.312 232.3 4.4 228 21.4
2004-11-05 11:41:54 51°16.834 2°38.235 235.7 2.6 225 21
2004-11-05 11:43:00 51°16.807 2°38.196 240.1 1.6 213 20.4
2004-11-05 11:44:00 51°16.791 2°38.183 238.8 0.8 178 20.1
2004-11-05 11:45:06 51°16.776 2°38.183 222.3 0.9 182 20
2004-11-05 11:46:16 51°16.761 2°38.183 208.3 1 181 19.4
2004-11-05 11:47:16 51°16.746 2°38.181 206.5 0.9 194 19.1
2004-11-05 11:48:38 51°16.718 2°38.16 230.5 2.2 225 18
2004-11-05 11:49:38 51°16.698 2°38.095 273.3 3.2 256 18.9
2004-11-05 11:50:34 51°16.706 2°38.025 325.1 2.6 305 21
2004-11-05 11:51:36 51°16.741 2°38.017 38.9 2 30 22.3
2004-11-05 11:52:38 51°16.765 2°38.066 47.1 2.3 57 22.1
2004-11-05 11:53:46 51°16.792 2°38.112 43.5 2.1 41 21.9
2004-11-05 11:54:48 51°16.817 2°38.15 42.1 2 42 22.3
2004-11-05 11:55:48 51°16.839 2°38.186 41.7 2 48 22.1
2004-11-05 11:56:47 51°16.863 2°38.221 43.3 2 44 22.3
2004-11-05 11:57:54 51°16.889 2°38.267 45.4 2.2 55 22.5
2004-11-05 11:59:02 51°16.912 2°38.317 49.4 2 56 22.3
2004-11-05 12:00:26 51°16.941 2°38.38 50 2.1 48 21.9
2004-11-05 12:01:24 51°16.964 2°38.424 47.6 2.4 46 21.6
2004-11-05 12:02:40 51°16.992 2°38.481 48 2.4 60 21.1
2004-11-05 12:03:52 51°17.018 2°38.526 44.3 1.7 43 21.6
2004-11-05 12:04:52 51°17.041 2°38.56 39.6 2 42 21.2
2004-11-05 12:05:52 51°17.066 2°38.594 39.8 1.9 44 21.1
2004-11-05 12:06:54 51°17.091 2°38.629 43.5 1.8 37 20.5
2004-11-05 12:07:55 51°17.114 2°38.662 42.6 1.8 45 21.7
2004-11-05 12:08:54 51°17.137 2°38.696 42.5 1.9 48 21.4
2004-11-05 12:09:58 51°17.162 2°38.735 41.7 1.9 45 21.2
2004-11-05 12:11:12 51°17.189 2°38.779 43.3 1.8 38 21.5
2004-11-05 12:12:12 51°17.21 2°38.813 44.6 1.9 40 20.8
2004-11-05 12:13:14 51°17.232 2°38.851 43.2 1.8 39 21.3
2004-11-05 12:14:12 51°17.252 2°38.884 42.7 1.6 43 20.9
2004-11-05 12:15:34 51°17.28 2°38.925 41.3 1.7 46 21.3
2004-11-05 12:16:34 51°17.299 2°38.957 43.4 1.6 50 20.3
2004-11-05 12:17:34 51°17.318 2°38.989 40.8 1.7 34 20.3
2004-11-05 12:18:42 51°17.343 2°39.023 41.9 1.8 48 19.6
2004-11-05 12:19:46 51°17.365 2°39.06 49.1 1.6 46 19.8
2004-11-05 12:20:52 51°17.382 2°39.099 47.9 1.9 49 19.4
2004-11-05 12:21:54 51°17.401 2°39.135 45.2 1.7 52 19.2
2004-11-05 12:22:52 51°17.419 2°39.166 41.5 1.5 37 19.4
2004-11-05 12:23:54 51°17.441 2°39.198 42.2 1.7 49 18.5
2004-11-05 12:25:02 51°17.459 2°39.239 45.9 1.6 50 18.5
2004-11-05 12:26:06 51°17.479 2°39.273 42.8 1.7 43 18.3
2004-11-05 12:27:06 51°17.5 2°39.304 39.7 1.9 38 18.5
2004-11-05 12:28:06 51°17.52 2°39.335 40 1.8 53 18.5
2004-11-05 12:29:06 51°17.542 2°39.367 44.2 1.6 44 17.9
2004-11-05 12:30:06 51°17.561 2°39.402 47.3 1.8 47 18.9
2004-11-05 12:31:16 51°17.583 2°39.447 50.9 1.8 55 18.5
2004-11-05 12:32:30 51°17.606 2°39.497 50.2 2 50 19.5
2004-11-05 12:33:30 51°17.625 2°39.534 46.5 1.9 43 20
2004-11-05 12:34:40 51°17.649 2°39.576 49.8 1.7 52 19.2
2004-11-05 12:35:46 51°17.665 2°39.616 48.4 1.5 52 20
2004-11-05 12:36:58 51°17.684 2°39.659 46.6 1.7 52 20
2004-11-05 12:37:58 51°17.703 2°39.689 37.4 1.5 38 19.4
2004-11-05 12:39:04 51°17.727 2°39.718 39.7 1.7 40 19.4
2004-11-05 12:40:18 51°17.752 2°39.755 41.9 1.6 39 18.6
2004-11-05 12:41:30 51°17.772 2°39.796 46.8 1.7 54 19
2004-11-05 12:42:30 51°17.789 2°39.829 43.4 1.5 57 18.6
2004-11-05 12:43:34 51°17.809 2°39.862 39.1 1.7 42 20.3
2004-11-05 12:44:46 51°17.83 2°39.898 42.7 1.5 53 18.8
2004-11-05 12:45:50 51°17.849 2°39.933 45.4 1.6 44 19.3
2004-11-05 12:47:08 51°17.869 2°39.979 47.3 1.7 63 19.4
2004-11-05 12:48:16 51°17.888 2°40.021 43.9 1.7 50 18.7
2004-11-05 12:49:14 51°17.906 2°40.051 41.3 1.6 49 18.7
2004-11-05 12:50:36 51°17.931 2°40.098 42.8 1.8 52 19.5
2004-11-05 12:51:50 51°17.957 2°40.136 37 1.5 43 18.8
2004-11-05 12:52:58 51°17.981 2°40.167 37.5 1.6 32 18.3
2004-11-05 12:54:12 51°18.004 2°40.209 45 1.7 53 20.1
2004-11-05 12:55:22 51°18.026 2°40.251 44.3 1.5 53 19.3
2004-11-05 12:56:24 51°18.043 2°40.287 41.4 1.7 51 19.3
2004-11-05 12:57:28 51°18.062 2°40.32 40.6 1.6 52 19.1
2004-11-05 12:58:28 51°18.079 2°40.349 40.1 1.5 42 19.4
2004-11-05 12:59:26 51°18.094 2°40.374 37.7 1.5 44 19.6
2004-11-05 13:00:44 51°18.116 2°40.405 35.1 1.6 42 18.8
2004-11-05 13:01:48 51°18.135 2°40.431 33.3 1.3 51 18.5
2004-11-05 13:02:50 51°18.156 2°40.461 39.7 1.8 35 20.2
2004-11-05 13:04:31 51°18.197 2°40.524 32.6 2 36 19.6
2004-11-05 13:05:46 51°18.221 2°40.565 42.4 1.7 47 19.2
2004-11-05 13:06:58 51°18.245 2°40.606 39.3 2 40 20.7
2004-11-05 13:08:06 51°18.269 2°40.643 39.2 1.7 50 18.5
2004-11-05 13:09:10 51°18.288 2°40.679 45.8 1.8 54 19.8
2004-11-05 13:10:15 51°18.311 2°40.721 42.4 1.9 43 20.3
2004-11-05 13:11:23 51°18.337 2°40.76 38.5 1.7 43 19.6
2004-11-05 13:12:23 51°18.359 2°40.793 40.3 1.8 37 18.1
2004-11-05 13:13:19 51°18.378 2°40.828 48.8 1.9 52 14.4
2004-11-05 13:14:30 51°18.402 2°40.871 41.6 1.8 43 16.5
2004-11-05 13:15:53 51°18.429 2°40.917 42.8 1.5 39 16.4
2004-11-05 13:16:56 51°18.451 2°40.949 34.7 1.6 34 16.7
2004-11-05 13:17:56 51°18.47 2°40.979 44.5 1.7 55 17.2
2004-11-05 13:19:07 51°18.492 2°41.018 39.6 1.8 37 15.9
2004-11-05 13:20:27 51°18.518 2°41.061 41.4 1.7 63 15.5
2004-11-05 13:21:28 51°18.539 2°41.099 40.9 1.8 46 18.8
2004-11-05 13:22:35 51°18.564 2°41.148 46.3 2.4 52 20.3
2004-11-05 13:23:36 51°18.588 2°41.208 54.4 2.8 63 17
2004-11-05 13:24:49 51°18.632 2°41.226 347.8 2.1 331 19.9
2004-11-05 13:25:53 51°18.644 2°41.157 277.7 2.9 261 19.1
2004-11-05 13:26:54 51°18.606 2°41.102 209 3.2 198 17.4
2004-11-05 13:27:54 51°18.558 2°41.066 219.5 3 208 17.8
2004-11-05 13:28:59 51°18.516 2°41.021 225.8 2.9 222 16.3
2004-11-05 13:29:58 51°18.478 2°40.989 210.4 2.7 206 17
2004-11-05 13:31:24 51°18.427 2°40.942 235.9 2.2 216 15.1
2004-11-05 13:32:26 51°18.398 2°40.911 246 1.7 209 16.2
2004-11-05 13:33:25 51°18.373 2°40.878 258.1 2.2 229 17.1
2004-11-05 13:34:25 51°18.35 2°40.822 268.5 2.8 251 15.8
2004-11-05 13:35:44 51°18.318 2°40.736 255.2 3.2 236 20.6
2004-11-05 13:36:53 51°18.282 2°40.653 249.3 3.3 234 18.2
2004-11-05 13:37:53 51°18.244 2°40.586 244.5 3.4 224 21.1
2004-11-05 13:38:53 51°18.209 2°40.521 244.8 3.1 229 20
2004-11-05 13:39:53 51°18.175 2°40.458 246.1 3.1 227 20.9
2004-11-05 13:40:54 51°18.138 2°40.398 241.3 3 223 18.9
2004-11-05 13:41:53 51°18.104 2°40.344 242.5 3.1 231 19.9
2004-11-05 13:43:03 51°18.063 2°40.271 242.7 3.4 236 19
2004-11-05 13:44:03 51°18.024 2°40.212 238.4 3.1 219 20.3
2004-11-05 13:45:03 51°17.987 2°40.157 236.2 3.1 222 18.8
2004-11-05 13:46:12 51°17.943 2°40.095 236.1 3.1 222 19.8
2004-11-05 13:47:29 51°17.896 2°40.023 240.7 2.9 221 19.1
2004-11-05 13:48:29 51°17.866 2°39.968 249.6 2.6 227 19.4
2004-11-05 13:49:43 51°17.828 2°39.899 246.7 2.8 227 19.8
2004-11-05 13:50:45 51°17.796 2°39.841 248.6 2.8 235 19
2004-11-05 13:52:03 51°17.755 2°39.766 241.6 3.1 222 19.5
2004-11-05 13:53:14 51°17.712 2°39.699 240.9 3.2 226 20.3
2004-11-05 13:54:22 51°17.674 2°39.637 243.9 2.8 226 20.4
2004-11-05 13:55:22 51°17.645 2°39.577 250.3 3 230 20.1
2004-11-05 13:56:22 51°17.615 2°39.513 251.5 3.1 237 19.6
2004-11-05 13:57:22 51°17.585 2°39.454 247.9 2.8 234 18.9
2004-11-05 13:58:27 51°17.55 2°39.391 244.1 2.9 224 18.7
2004-11-05 13:59:41 51°17.507 2°39.319 242.2 2.9 230 19.5
2004-11-05 14:00:56 51°17.461 2°39.246 241.1 3.1 227 19.2
2004-11-05 14:01:55 51°17.424 2°39.187 238.3 3.3 221 19.3
2004-11-05 14:03:14 51°17.374 2°39.111 242.6 3 218 20.3
2004-11-05 14:04:37 51°17.325 2°39.031 240.6 3.1 221 20.5
2004-11-05 14:05:48 51°17.283 2°38.963 246.1 3.2 222 20.4
2004-11-05 14:06:55 51°17.251 2°38.897 266.1 2.4 242 21.3
2004-11-05 14:07:58 51°17.242 2°38.836 300.7 2 273 22.3
2004-11-05 14:09:01 51°17.254 2°38.8 349.4 1.3 334 22.8
2004-11-05 14:10:02 51°17.268 2°38.819 50.8 1.5 69 22.8
2004-11-05 14:11:00 51°17.266 2°38.874 91.8 2.5 104 22.1
2004-11-05 14:12:24 51°17.217 2°38.946 163.7 3.3 162 17.7
2004-11-05 14:13:32 51°17.16 2°38.927 218.7 3.1 206 15
2004-11-05 14:14:32 51°17.128 2°38.875 254.5 2.5 237 13.8
2004-11-05 14:15:40 51°17.11 2°38.812 281.7 2.2 252 16.6
2004-11-05 14:16:46 51°17.113 2°38.762 320.6 1.5 298 18.3
2004-11-05 14:17:46 51°17.131 2°38.753 16.7 1.3 24 20.1
2004-11-05 14:19:14 51°17.124 2°38.769 42.7 0.7 139 18.6
2004-11-05 14:20:14 51°17.113 2°38.778 43.8 0.7 154 17.1
2004-11-05 14:21:20 51°17.1 2°38.787 43.7 0.7 157 15.9
2004-11-05 14:22:34 51°17.086 2°38.799 38.8 0.7 156 14.3
2004-11-05 14:24:02 51°17.068 2°38.81 41.2 0.8 151 12.6
2004-11-05 14:25:18 51°17.052 2°38.82 46.3 0.9 156 11.1
2004-11-05 14:26:31 51°17.036 2°38.829 50.3 0.8 163 10.9
2004-11-05 14:27:39 51°17.039 2°38.943 98 6.4 100 11.2
2004-11-05 14:29:10 51°16.875 2°39.241 130.8 13.1 135 12.7
2004-11-05 14:30:28 51°16.667 2°39.588 131.9 13.7 133 18.8
2004-11-05 14:31:34 51°16.488 2°39.883 136.1 14.4 139 22.1
2004-11-05 14:32:34 51°16.325 2°40.139 130 13.3 130 22.6
2004-11-05 14:33:42 51°16.138 2°40.433 134 14.2 135 21.5
2004-11-05 14:34:44 51°15.978 2°40.708 133.8 13.7 131 19.1
2004-11-05 14:35:56 51°15.795 2°41.044 130.6 14.3 130 14.2
2004-11-05 14:37:02 51°15.631 2°41.348 130.5 13.9 130 12.2
2004-11-05 14:38:16 51°15.485 2°41.725 115.7 13.7 118 11.9
2004-11-05 14:39:14 51°15.441 2°42.063 95.5 13.8 93 11.4
2004-11-05 14:40:41 51°15.444 2°42.578 96.1 13.6 98 12.9
2004-11-05 14:41:46 51°15.413 2°42.971 95 14.1 96 13.5
2004-11-05 14:42:58 51°15.393 2°43.407 97.9 13.6 98 14.5
2004-11-05 14:44:28 51°15.364 2°43.95 97.9 13.7 100 14.4
2004-11-05 14:45:29 51°15.343 2°44.321 97.6 13.8 93 16.7
2004-11-05 14:46:32 51°15.319 2°44.704 95.6 13.5 99 19.3
2004-11-05 14:47:34 51°15.298 2°45.081 95.5 13.7 99 19.3
2004-11-05 14:48:33 51°15.277 2°45.438 95.6 14.3 96 17.6
2004-11-05 14:49:34 51°15.255 2°45.809 96 13.6 93 16.8
2004-11-05 14:50:32 51°15.232 2°46.163 100.5 14.2 91 15.1
2004-11-05 14:51:39 51°15.221 2°46.567 91.8 13.8 91 13.5
2004-11-05 14:52:39 51°15.205 2°46.928 93 13.8 94 12
2004-11-05 14:53:38 51°15.193 2°47.277 94.7 13.3 88 11
2004-11-05 14:54:48 51°15.189 2°47.707 90.9 13.8 94 11
2004-11-05 14:55:52 51°15.17 2°48.103 99.7 14.1 92 13.4
2004-11-05 14:56:58 51°15.146 2°48.504 95.3 13.7 94 14.3
2004-11-05 14:58:00 51°15.123 2°48.879 94.6 13.2 99 14.2
2004-11-05 14:58:59 51°15.103 2°49.24 94.3 13.9 92 14.1
2004-11-05 15:00:12 51°15.073 2°49.686 98.6 13.9 93 14.1
2004-11-05 15:01:10 51°15.047 2°50.036 98.4 14.2 102 14.2
2004-11-05 15:02:12 51°15.022 2°50.414 95.5 13.6 97 13.7
2004-11-05 15:03:12 51°14.996 2°50.773 97.9 13.1 96 13.5
2004-11-05 15:04:18 51°14.968 2°51.168 95 13.6 88 13
2004-11-05 15:05:26 51°14.944 2°51.579 96.1 13.8 95 12.6
2004-11-05 15:06:56 51°14.904 2°52.117 102.7 13.5 101 11.9
2004-11-05 15:08:00 51°14.855 2°52.494 102.2 13.8 102 11.3
2004-11-05 15:09:00 51°14.816 2°52.784 101.3 8.9 101 11.3
2004-11-05 15:10:14 51°14.779 2°53.025 106.7 7.1 109 11.1
2004-11-05 15:11:20 51°14.746 2°53.215 108.8 7 104 11.1
2004-11-05 15:12:20 51°14.707 2°53.405 111.3 7.9 103 11.1
2004-11-05 15:13:18 51°14.669 2°53.601 110.3 8.3 98 11.1
2004-11-05 15:14:28 51°14.609 2°53.913 109.7 13.2 105 12.7
2004-11-05 15:15:40 51°14.526 2°54.319 113.6 13.8 110 12.3
2004-11-05 15:16:46 51°14.453 2°54.693 108.2 13.2 104 12.2
2004-11-05 15:18:02 51°14.348 2°55.079 119.7 12.4 116 12.4
2004-11-05 15:19:00 51°14.236 2°55.307 137.8 10.8 138 12.8
2004-11-05 15:20:01 51°14.099 2°55.44 159.8 8.7 157 12
2004-11-05 15:21:06 51°13.958 2°55.541 158 8.4 156 12.2
2004-11-05 15:22:06 51°13.834 2°55.634 157 8.5 155 12
2004-11-05 15:23:15 51°13.721 2°55.79 135.2 6.9 133 13.9
2004-11-05 15:24:14 51°13.659 2°55.921 128.6 5.8 125 11.5
2004-11-05 15:25:30 51°13.616 2°56.046 113.7 3 112 10.9
2004-11-05 15:26:30 51°13.601 2°56.1 119.9 1.8 118 9.3
2004-11-05 15:27:30 51°13.597 2°56.107 122.4 0.3 109 9.5
2004-11-05 15:28:40 51°13.597 2°56.112 124.5 0.1 29 9.5
2004-11-05 15:29:40 51°13.597 2°56.11 130.2 0.3 255 9.7
2004-11-05 15:30:42 51°13.597 2°56.111 130 0.1 191 9.5